createdAt,value
2016-10-30T00:00:13.433Z,0
2016-10-30T00:01:12.834Z,0
2016-10-30T00:02:13.466Z,0
2016-10-30T00:03:12.843Z,0
2016-10-30T00:04:13.494Z,0
2016-10-30T00:05:13.821Z,0
2016-10-30T00:06:13.526Z,0
2016-10-30T00:07:12.917Z,0
2016-10-30T00:08:13.574Z,0
2016-10-30T00:09:13.591Z,0
2016-10-30T00:10:13.277Z,0
2016-10-30T00:11:13.309Z,0
2016-10-30T00:12:13.630Z,0
2016-10-30T00:13:13.651Z,0
2016-10-30T00:14:13.696Z,0
2016-10-30T00:15:13.410Z,0
2016-10-30T00:16:13.070Z,0
2016-10-30T00:17:14.025Z,0
2016-10-30T00:18:14.050Z,0
2016-10-30T00:19:14.067Z,0
2016-10-30T00:20:14.084Z,0
2016-10-30T00:21:13.470Z,0
2016-10-30T00:22:14.151Z,0
2016-10-30T00:23:13.185Z,0
2016-10-30T00:24:13.537Z,0
2016-10-30T00:25:13.862Z,0
2016-10-30T00:26:13.874Z,0
2016-10-30T00:27:13.596Z,0
2016-10-30T00:28:13.908Z,0
2016-10-30T00:29:13.605Z,0
2016-10-30T00:30:13.944Z,0
2016-10-30T00:31:13.958Z,0
2016-10-30T00:32:13.654Z,0
2016-10-30T00:33:13.667Z,0
2016-10-30T00:34:14.334Z,0
2016-10-30T00:35:13.706Z,0
2016-10-30T00:36:13.411Z,0
2016-10-30T00:37:14.058Z,0
2016-10-30T00:38:28.980Z,0
2016-10-30T00:39:13.774Z,0
2016-10-30T00:40:14.108Z,0
2016-10-30T00:41:14.127Z,0
2016-10-30T00:42:13.821Z,0
2016-10-30T00:43:14.156Z,0
2016-10-30T00:44:14.813Z,0
2016-10-30T00:45:13.876Z,0
2016-10-30T00:46:13.901Z,0
2016-10-30T00:47:13.908Z,0
2016-10-30T00:48:13.930Z,0
2016-10-30T00:49:13.938Z,0
2016-10-30T00:50:14.592Z,0
2016-10-30T00:51:14.609Z,0
2016-10-30T00:52:14.634Z,0
2016-10-30T00:53:14.005Z,0
2016-10-30T00:54:14.342Z,0
2016-10-30T00:55:14.365Z,0
2016-10-30T00:56:14.059Z,0
2016-10-30T00:57:14.078Z,0
2016-10-30T00:58:14.419Z,0
2016-10-30T00:59:14.112Z,0
2016-10-30T01:00:14.137Z,0
2016-10-30T01:01:14.165Z,0
2016-10-30T01:02:14.482Z,0
2016-10-30T01:03:14.490Z,0
2016-10-30T01:04:14.195Z,0
2016-10-30T01:05:13.899Z,0
2016-10-30T01:06:14.915Z,0
2016-10-30T01:07:14.560Z,0
2016-10-30T01:08:14.267Z,0
2016-10-30T01:09:15.225Z,0
2016-10-30T01:10:14.605Z,0
2016-10-30T01:11:14.348Z,0
2016-10-30T01:12:14.641Z,0
2016-10-30T01:13:14.657Z,0
2016-10-30T01:14:14.363Z,0
2016-10-30T01:15:15.324Z,0
2016-10-30T01:16:15.066Z,0
2016-10-30T01:17:14.413Z,0
2016-10-30T01:18:14.110Z,0
2016-10-30T01:19:15.072Z,0
2016-10-30T01:20:14.780Z,0
2016-10-30T01:21:14.812Z,0
2016-10-30T01:22:15.179Z,0
2016-10-30T01:23:14.509Z,0
2016-10-30T01:24:14.531Z,0
2016-10-30T01:25:14.541Z,0
2016-10-30T01:26:14.571Z,0
2016-10-30T01:27:14.578Z,0
2016-10-30T01:28:14.939Z,0
2016-10-30T01:29:14.951Z,0
2016-10-30T01:30:15.407Z,0
2016-10-30T01:31:14.951Z,0
2016-10-30T01:32:14.655Z,0
2016-10-30T01:33:14.670Z,0
2016-10-30T01:34:40.357Z,0
2016-10-30T01:35:15.015Z,0
2016-10-30T01:36:15.028Z,0
2016-10-30T01:37:14.416Z,0
2016-10-30T01:38:14.745Z,0
2016-10-30T01:39:15.078Z,0
2016-10-30T01:40:14.778Z,0
2016-10-30T01:41:15.159Z,0
2016-10-30T01:42:15.187Z,0
2016-10-30T01:43:15.475Z,0
2016-10-30T01:44:15.498Z,0
2016-10-30T01:45:14.905Z,0
2016-10-30T01:46:14.606Z,0
2016-10-30T01:47:14.584Z,0
2016-10-30T01:48:14.613Z,0
2016-10-30T01:49:15.260Z,0
2016-10-30T01:50:15.592Z,0
2016-10-30T01:51:15.284Z,0
2016-10-30T01:52:15.611Z,0
2016-10-30T01:53:15.014Z,0
2016-10-30T01:54:15.338Z,0
2016-10-30T01:55:15.668Z,0
2016-10-30T01:56:15.389Z,0
2016-10-30T01:57:15.698Z,0
2016-10-30T01:58:15.725Z,0
2016-10-30T01:59:16.047Z,0
2016-10-30T02:00:15.178Z,0
2016-10-30T02:01:15.447Z,0
2016-10-30T02:02:15.795Z,0
2016-10-30T02:03:14.867Z,0
2016-10-30T02:04:14.873Z,0
2016-10-30T02:05:15.665Z,0
2016-10-30T02:06:15.565Z,0
2016-10-30T02:07:41.223Z,0
2016-10-30T02:08:15.876Z,0
2016-10-30T02:09:15.889Z,0
2016-10-30T02:10:15.591Z,0
2016-10-30T02:11:15.608Z,0
2016-10-30T02:12:15.625Z,0
2016-10-30T02:13:15.327Z,0
2016-10-30T02:14:15.336Z,0
2016-10-30T02:15:15.669Z,0
2016-10-30T02:16:15.690Z,0
2016-10-30T02:17:15.141Z,0
2016-10-30T02:18:15.418Z,0
2016-10-30T02:19:15.752Z,0
2016-10-30T02:20:15.904Z,0
2016-10-30T02:21:15.797Z,0
2016-10-30T02:22:16.140Z,0
2016-10-30T02:23:16.114Z,0
2016-10-30T02:24:15.824Z,0
2016-10-30T02:25:15.857Z,0
2016-10-30T02:26:15.875Z,0
2016-10-30T02:27:15.592Z,0
2016-10-30T02:28:15.890Z,0
2016-10-30T02:29:16.222Z,0
2016-10-30T02:30:15.607Z,0
2016-10-30T02:31:15.655Z,0
2016-10-30T02:32:15.681Z,0
2016-10-30T02:33:15.974Z,0
2016-10-30T02:34:15.351Z,0
2016-10-30T02:35:15.848Z,0
2016-10-30T02:36:15.734Z,0
2016-10-30T02:37:16.040Z,0
2016-10-30T02:38:16.363Z,0
2016-10-30T02:39:15.750Z,0
2016-10-30T02:40:15.457Z,0
2016-10-30T02:41:15.787Z,0
2016-10-30T02:42:16.441Z,0
2016-10-30T02:43:16.458Z,0
2016-10-30T02:44:16.499Z,0
2016-10-30T02:45:16.481Z,0
2016-10-30T02:46:15.864Z,0
2016-10-30T02:47:16.513Z,0
2016-10-30T02:48:15.586Z,0
2016-10-30T02:49:15.926Z,0
2016-10-30T02:50:16.739Z,0
2016-10-30T02:51:16.574Z,0
2016-10-30T02:52:16.911Z,0
2016-10-30T02:53:16.612Z,0
2016-10-30T02:54:16.314Z,0
2016-10-30T02:55:16.007Z,0
2016-10-30T02:56:16.658Z,0
2016-10-30T02:57:16.039Z,0
2016-10-30T02:58:16.056Z,0
2016-10-30T02:59:15.757Z,0
2016-10-30T03:00:16.104Z,0
2016-10-30T03:01:16.107Z,0
2016-10-30T03:02:16.120Z,0
2016-10-30T03:03:16.452Z,0
2016-10-30T03:04:15.838Z,0
2016-10-30T03:05:16.211Z,0
2016-10-30T03:06:17.129Z,0
2016-10-30T03:07:16.230Z,0
2016-10-30T03:08:16.850Z,0
2016-10-30T03:09:16.874Z,0
2016-10-30T03:10:16.116Z,0
2016-10-30T03:11:16.582Z,0
2016-10-30T03:12:16.608Z,0
2016-10-30T03:13:16.620Z,0
2016-10-30T03:14:16.949Z,0
2016-10-30T03:15:16.342Z,0
2016-10-30T03:16:16.347Z,0
2016-10-30T03:17:16.368Z,0
2016-10-30T03:18:16.738Z,0
2016-10-30T03:19:16.716Z,0
2016-10-30T03:20:16.452Z,0
2016-10-30T03:21:16.749Z,0
2016-10-30T03:22:17.105Z,0
2016-10-30T03:23:16.781Z,0
2016-10-30T03:24:17.111Z,0
2016-10-30T03:25:16.807Z,0
2016-10-30T03:26:16.823Z,0
2016-10-30T03:27:17.158Z,0
2016-10-30T03:28:17.171Z,0
2016-10-30T03:29:16.556Z,0
2016-10-30T03:30:17.035Z,0
2016-10-30T03:31:16.960Z,0
2016-10-30T03:32:16.606Z,0
2016-10-30T03:33:17.253Z,0
2016-10-30T03:34:16.646Z,0
2016-10-30T03:35:17.007Z,0
2016-10-30T03:36:17.307Z,0
2016-10-30T03:37:16.431Z,0
2016-10-30T03:38:17.022Z,0
2016-10-30T03:39:17.369Z,0
2016-10-30T03:40:16.753Z,0
2016-10-30T03:41:17.117Z,0
2016-10-30T03:42:17.115Z,0
2016-10-30T03:43:17.420Z,0
2016-10-30T03:44:16.810Z,0
2016-10-30T03:45:16.980Z,0
2016-10-30T03:46:17.153Z,0
2016-10-30T03:47:16.853Z,0
2016-10-30T03:48:16.895Z,0
2016-10-30T03:49:16.891Z,0
2016-10-30T03:50:17.220Z,0
2016-10-30T03:51:17.866Z,0
2016-10-30T03:52:16.938Z,0
2016-10-30T03:53:16.954Z,0
2016-10-30T03:54:17.605Z,0
2016-10-30T03:55:17.328Z,0
2016-10-30T03:56:17.317Z,0
2016-10-30T03:57:17.893Z,0
2016-10-30T03:58:17.356Z,0
2016-10-30T03:59:17.047Z,0
2016-10-30T04:00:17.213Z,0
2016-10-30T04:01:17.401Z,0
2016-10-30T04:02:17.428Z,0
2016-10-30T04:03:17.750Z,0
2016-10-30T04:04:17.186Z,0
2016-10-30T04:05:17.781Z,0
2016-10-30T04:06:17.476Z,0
2016-10-30T04:07:17.830Z,0
2016-10-30T04:08:17.245Z,0
2016-10-30T04:09:17.859Z,0
2016-10-30T04:10:16.913Z,0
2016-10-30T04:11:17.891Z,0
2016-10-30T04:12:18.219Z,0
2016-10-30T04:13:17.284Z,0
2016-10-30T04:14:17.987Z,0
2016-10-30T04:15:17.942Z,0
2016-10-30T04:16:18.278Z,0
2016-10-30T04:17:17.664Z,0
2016-10-30T04:18:17.364Z,0
2016-10-30T04:19:17.391Z,0
2016-10-30T04:20:18.025Z,0
2016-10-30T04:21:17.751Z,0
2016-10-30T04:22:17.745Z,0
2016-10-30T04:23:17.455Z,0
2016-10-30T04:24:17.473Z,0
2016-10-30T04:25:17.476Z,0
2016-10-30T04:26:17.815Z,0
2016-10-30T04:27:17.827Z,0
2016-10-30T04:28:17.846Z,0
2016-10-30T04:29:17.553Z,0
2016-10-30T04:30:17.893Z,0
2016-10-30T04:31:17.576Z,0
2016-10-30T04:32:17.918Z,0
2016-10-30T04:33:18.265Z,0
2016-10-30T04:34:17.963Z,0
2016-10-30T04:35:17.982Z,0
2016-10-30T04:36:17.976Z,0
2016-10-30T04:37:18.323Z,0
2016-10-30T04:38:18.365Z,0
2016-10-30T04:39:18.355Z,0
2016-10-30T04:40:18.051Z,0
2016-10-30T04:41:18.080Z,0
2016-10-30T04:42:17.769Z,0
2016-10-30T04:43:17.782Z,0
2016-10-30T04:44:18.121Z,0
2016-10-30T04:45:18.004Z,0
2016-10-30T04:46:18.462Z,0
2016-10-30T04:47:17.866Z,0
2016-10-30T04:48:18.520Z,0
2016-10-30T04:49:18.209Z,0
2016-10-30T04:50:17.903Z,0
2016-10-30T04:51:18.552Z,0
2016-10-30T04:52:18.255Z,0
2016-10-30T04:53:17.639Z,0
2016-10-30T04:54:17.971Z,0
2016-10-30T04:55:18.476Z,0
2016-10-30T04:56:18.002Z,0
2016-10-30T04:57:18.027Z,0
2016-10-30T04:58:17.752Z,0
2016-10-30T04:59:18.404Z,0
2016-10-30T05:00:18.068Z,0
2016-10-30T05:01:18.446Z,0
2016-10-30T05:02:18.767Z,0
2016-10-30T05:03:18.123Z,0
2016-10-30T05:04:18.129Z,0
2016-10-30T05:05:18.150Z,0
2016-10-30T05:06:18.499Z,0
2016-10-30T05:07:18.192Z,0
2016-10-30T05:08:18.525Z,0
2016-10-30T05:09:18.851Z,0
2016-10-30T05:10:18.081Z,0
2016-10-30T05:11:18.569Z,0
2016-10-30T05:12:18.611Z,0
2016-10-30T05:13:18.596Z,0
2016-10-30T05:14:18.619Z,0
2016-10-30T05:15:18.647Z,0
2016-10-30T05:16:18.970Z,0
2016-10-30T05:17:18.369Z,0
2016-10-30T05:18:18.701Z,0
2016-10-30T05:19:18.384Z,0
2016-10-30T05:20:18.588Z,0
2016-10-30T05:21:18.740Z,0
2016-10-30T05:22:19.090Z,0
2016-10-30T05:23:18.773Z,0
2016-10-30T05:24:18.160Z,0
2016-10-30T05:25:18.816Z,0
2016-10-30T05:26:18.508Z,0
2016-10-30T05:27:18.568Z,0
2016-10-30T05:28:18.579Z,0
2016-10-30T05:29:18.867Z,0
2016-10-30T05:30:19.407Z,0
2016-10-30T05:31:33.798Z,0
2016-10-30T05:32:18.608Z,0
2016-10-30T05:33:18.661Z,0
2016-10-30T05:34:18.326Z,0
2016-10-30T05:35:18.803Z,0
2016-10-30T05:36:18.981Z,0
2016-10-30T05:37:18.684Z,0
2016-10-30T05:38:18.709Z,0
2016-10-30T05:39:19.080Z,0
2016-10-30T05:40:18.738Z,0
2016-10-30T05:41:18.440Z,0
2016-10-30T05:42:18.777Z,0
2016-10-30T05:43:18.835Z,0
2016-10-30T05:44:19.431Z,0
2016-10-30T05:45:19.448Z,0
2016-10-30T05:46:19.783Z,0
2016-10-30T05:47:34.059Z,0
2016-10-30T05:48:19.228Z,0
2016-10-30T05:49:19.526Z,0
2016-10-30T05:50:18.912Z,0
2016-10-30T05:51:19.231Z,0
2016-10-30T05:52:19.272Z,0
2016-10-30T05:53:18.950Z,0
2016-10-30T05:54:18.964Z,0
2016-10-30T05:55:19.306Z,0
2016-10-30T05:56:19.006Z,0
2016-10-30T05:57:19.649Z,0
2016-10-30T05:58:19.350Z,0
2016-10-30T05:59:19.371Z,0
2016-10-30T06:00:19.382Z,0
2016-10-30T06:01:19.721Z,0
2016-10-30T06:02:19.742Z,0
2016-10-30T06:03:19.123Z,0
2016-10-30T06:04:19.773Z,0
2016-10-30T06:05:19.619Z,0
2016-10-30T06:06:19.178Z,0
2016-10-30T06:07:19.812Z,0
2016-10-30T06:08:19.515Z,0
2016-10-30T06:09:19.230Z,0
2016-10-30T06:10:19.573Z,0
2016-10-30T06:11:18.937Z,0
2016-10-30T06:12:19.581Z,0
2016-10-30T06:13:19.275Z,0
2016-10-30T06:14:19.624Z,0
2016-10-30T06:15:20.099Z,0
2016-10-30T06:16:19.958Z,0
2016-10-30T06:17:19.690Z,0
2016-10-30T06:18:20.002Z,0
2016-10-30T06:19:19.696Z,0
2016-10-30T06:20:20.025Z,0
2016-10-30T06:21:19.433Z,0
2016-10-30T06:22:19.750Z,0
2016-10-30T06:23:19.761Z,0
2016-10-30T06:24:19.467Z,0
2016-10-30T06:25:19.963Z,0
2016-10-30T06:26:19.864Z,0
2016-10-30T06:27:20.501Z,0
2016-10-30T06:28:19.530Z,0
2016-10-30T06:29:19.545Z,0
2016-10-30T06:30:20.341Z,0
2016-10-30T06:31:19.256Z,0
2016-10-30T06:32:20.227Z,0
2016-10-30T06:33:19.613Z,0
2016-10-30T06:34:19.949Z,0
2016-10-30T06:35:19.648Z,0
2016-10-30T06:36:19.974Z,0
2016-10-30T06:37:19.680Z,0
2016-10-30T06:38:20.334Z,0
2016-10-30T06:39:20.035Z,0
2016-10-30T06:40:19.874Z,0
2016-10-30T06:41:20.057Z,0
2016-10-30T06:42:20.714Z,0
2016-10-30T06:43:19.853Z,0
2016-10-30T06:44:20.426Z,0
2016-10-30T06:45:20.472Z,0
2016-10-30T06:46:20.160Z,0
2016-10-30T06:47:19.865Z,0
2016-10-30T06:48:19.862Z,0
2016-10-30T06:49:20.503Z,0
2016-10-30T06:50:20.542Z,0
2016-10-30T06:51:20.220Z,0
2016-10-30T06:52:20.556Z,0
2016-10-30T06:53:20.660Z,0
2016-10-30T06:54:20.595Z,0
2016-10-30T06:55:20.639Z,0
2016-10-30T06:56:20.022Z,0
2016-10-30T06:57:20.005Z,0
2016-10-30T06:58:20.335Z,0
2016-10-30T06:59:20.040Z,0
2016-10-30T07:00:21.006Z,0
2016-10-30T07:01:20.383Z,0
2016-10-30T07:02:20.411Z,0
2016-10-30T07:03:20.097Z,0
2016-10-30T07:04:21.072Z,0
2016-10-30T07:05:20.474Z,0
2016-10-30T07:06:19.842Z,0
2016-10-30T07:07:20.487Z,0
2016-10-30T07:08:20.509Z,0
2016-10-30T07:09:20.216Z,0
2016-10-30T07:10:20.215Z,0
2016-10-30T07:11:20.866Z,0
2016-10-30T07:12:20.582Z,0
2016-10-30T07:13:20.594Z,0
2016-10-30T07:14:20.634Z,5
2016-10-30T07:15:20.314Z,5
2016-10-30T07:16:20.654Z,5
2016-10-30T07:17:20.380Z,5
2016-10-30T07:18:20.983Z,5
2016-10-30T07:19:20.675Z,5
2016-10-30T07:20:20.716Z,5
2016-10-30T07:21:20.735Z,5
2016-10-30T07:22:20.411Z,5
2016-10-30T07:23:20.433Z,5
2016-10-30T07:24:20.764Z,5
2016-10-30T07:25:20.465Z,5
2016-10-30T07:26:20.500Z,5
2016-10-30T07:27:20.813Z,5
2016-10-30T07:28:20.551Z,5
2016-10-30T07:29:20.531Z,5
2016-10-30T07:30:20.867Z,5
2016-10-30T07:31:20.247Z,5
2016-10-30T07:32:21.220Z,5
2016-10-30T07:33:20.596Z,5
2016-10-30T07:34:21.265Z,5
2016-10-30T07:35:20.470Z,5
2016-10-30T07:36:20.647Z,5
2016-10-30T07:37:21.299Z,5
2016-10-30T07:38:21.317Z,5
2016-10-30T07:39:20.703Z,5
2016-10-30T07:40:21.036Z,5
2016-10-30T07:41:20.542Z,5
2016-10-30T07:42:21.064Z,5
2016-10-30T07:43:21.396Z,5
2016-10-30T07:44:21.107Z,5
2016-10-30T07:45:21.168Z,5
2016-10-30T07:46:20.821Z,5
2016-10-30T07:47:20.556Z,5
2016-10-30T07:48:20.851Z,5
2016-10-30T07:49:21.820Z,5
2016-10-30T07:50:20.571Z,5
2016-10-30T07:51:21.241Z,5
2016-10-30T07:52:21.234Z,5
2016-10-30T07:53:21.247Z,5
2016-10-30T07:54:21.578Z,5
2016-10-30T07:55:21.293Z,5
2016-10-30T07:56:21.621Z,5
2016-10-30T07:57:21.037Z,5
2016-10-30T07:58:21.340Z,5
2016-10-30T07:59:21.364Z,5
2016-10-30T08:00:21.375Z,5
2016-10-30T08:01:21.397Z,5
2016-10-30T08:02:21.402Z,5
2016-10-30T08:03:21.753Z,5
2016-10-30T08:04:21.179Z,5
2016-10-30T08:05:21.145Z,5
2016-10-30T08:06:21.939Z,5
2016-10-30T08:07:21.222Z,5
2016-10-30T08:08:21.508Z,5
2016-10-30T08:09:21.530Z,5
2016-10-30T08:10:21.873Z,5
2016-10-30T08:11:21.894Z,5
2016-10-30T08:12:21.583Z,5
2016-10-30T08:13:21.907Z,5
2016-10-30T08:14:21.604Z,5
2016-10-30T08:15:22.293Z,5
2016-10-30T08:16:21.164Z,5
2016-10-30T08:17:21.977Z,5
2016-10-30T08:18:21.362Z,5
2016-10-30T08:19:21.069Z,5
2016-10-30T08:20:21.085Z,5
2016-10-30T08:21:21.423Z,5
2016-10-30T08:22:21.153Z,5
2016-10-30T08:23:21.449Z,5
2016-10-30T08:24:21.785Z,5
2016-10-30T08:25:21.807Z,5
2016-10-30T08:26:22.474Z,5
2016-10-30T08:27:21.527Z,5
2016-10-30T08:28:21.218Z,5
2016-10-30T08:29:22.185Z,5
2016-10-30T08:30:22.232Z,5
2016-10-30T08:31:21.597Z,5
2016-10-30T08:32:21.609Z,5
2016-10-30T08:33:21.961Z,5
2016-10-30T08:34:22.273Z,5
2016-10-30T08:35:21.973Z,5
2016-10-30T08:36:21.831Z,5
2016-10-30T08:37:21.718Z,5
2016-10-30T08:38:22.027Z,10
2016-10-30T08:39:22.042Z,10
2016-10-30T08:40:22.377Z,10
2016-10-30T08:41:21.773Z,10
2016-10-30T08:42:21.785Z,10
2016-10-30T08:43:21.800Z,10
2016-10-30T08:44:22.453Z,10
2016-10-30T08:45:21.516Z,10
2016-10-30T08:46:22.175Z,10
2016-10-30T08:47:22.818Z,10
2016-10-30T08:48:22.518Z,10
2016-10-30T08:49:22.222Z,10
2016-10-30T08:50:22.551Z,10
2016-10-30T08:51:22.571Z,10
2016-10-30T08:52:22.592Z,10
2016-10-30T08:53:21.686Z,10
2016-10-30T08:54:22.326Z,10
2016-10-30T08:55:22.328Z,10
2016-10-30T08:56:21.734Z,10
2016-10-30T08:57:22.682Z,10
2016-10-30T08:58:22.111Z,10
2016-10-30T08:59:22.190Z,10
2016-10-30T09:00:22.426Z,10
2016-10-30T09:01:22.121Z,10
2016-10-30T09:02:21.822Z,10
2016-10-30T09:03:22.469Z,10
2016-10-30T09:04:21.858Z,10
2016-10-30T09:05:22.825Z,10
2016-10-30T09:06:22.585Z,10
2016-10-30T09:07:22.226Z,10
2016-10-30T09:08:22.597Z,10
2016-10-30T09:09:21.976Z,10
2016-10-30T09:10:22.590Z,10
2016-10-30T09:11:22.301Z,10
2016-10-30T09:12:22.347Z,10
2016-10-30T09:13:22.966Z,10
2016-10-30T09:14:22.348Z,10
2016-10-30T09:15:22.696Z,10
2016-10-30T09:16:22.072Z,10
2016-10-30T09:17:22.722Z,10
2016-10-30T09:18:23.371Z,15
2016-10-30T09:19:22.759Z,15
2016-10-30T09:20:23.090Z,20
2016-10-30T09:21:22.315Z,25
2016-10-30T09:22:22.822Z,40
2016-10-30T09:23:22.206Z,35
2016-10-30T09:24:22.882Z,25
2016-10-30T09:25:23.217Z,25
2016-10-30T09:26:22.576Z,20
2016-10-30T09:27:22.587Z,20
2016-10-30T09:28:23.012Z,15
2016-10-30T09:29:22.634Z,15
2016-10-30T09:30:23.584Z,15
2016-10-30T09:31:22.810Z,15
2016-10-30T09:32:22.366Z,15
2016-10-30T09:33:22.696Z,15
2016-10-30T09:34:23.033Z,15
2016-10-30T09:35:23.051Z,15
2016-10-30T09:36:23.072Z,20
2016-10-30T09:37:23.104Z,20
2016-10-30T09:38:37.995Z,20
2016-10-30T09:39:22.853Z,20
2016-10-30T09:40:22.835Z,20
2016-10-30T09:41:23.656Z,20
2016-10-30T09:42:23.499Z,20
2016-10-30T09:43:23.519Z,20
2016-10-30T09:44:22.900Z,20
2016-10-30T09:45:22.928Z,20
2016-10-30T09:46:23.280Z,20
2016-10-30T09:47:22.960Z,20
2016-10-30T09:48:22.984Z,25
2016-10-30T09:49:23.310Z,25
2016-10-30T09:50:23.330Z,25
2016-10-30T09:51:23.813Z,30
2016-10-30T09:52:23.066Z,30
2016-10-30T09:53:23.404Z,35
2016-10-30T09:54:23.095Z,35
2016-10-30T09:55:23.458Z,40
2016-10-30T09:56:23.457Z,30
2016-10-30T09:57:23.777Z,75
2016-10-30T09:58:23.803Z,30
2016-10-30T09:59:23.839Z,40
2016-10-30T10:00:23.860Z,55
2016-10-30T10:01:23.561Z,80
2016-10-30T10:02:23.559Z,45
2016-10-30T10:03:23.264Z,80
2016-10-30T10:04:23.015Z,65
2016-10-30T10:05:23.620Z,55
2016-10-30T10:06:23.962Z,75
2016-10-30T10:07:23.925Z,50
2016-10-30T10:08:23.359Z,45
2016-10-30T10:09:24.044Z,45
2016-10-30T10:10:23.713Z,50
2016-10-30T10:11:23.737Z,40
2016-10-30T10:12:24.074Z,30
2016-10-30T10:13:23.778Z,30
2016-10-30T10:14:24.104Z,25
2016-10-30T10:15:23.499Z,25
2016-10-30T10:16:23.517Z,25
2016-10-30T10:17:23.858Z,50
2016-10-30T10:18:23.589Z,45
2016-10-30T10:19:23.581Z,50
2016-10-30T10:20:23.606Z,45
2016-10-30T10:21:23.938Z,75
2016-10-30T10:22:23.322Z,70
2016-10-30T10:23:24.299Z,70
2016-10-30T10:24:23.698Z,75
2016-10-30T10:25:24.329Z,75
2016-10-30T10:26:23.420Z,70
2016-10-30T10:27:24.063Z,60
2016-10-30T10:28:24.078Z,65
2016-10-30T10:29:23.819Z,70
2016-10-30T10:30:24.442Z,70
2016-10-30T10:31:24.281Z,65
2016-10-30T10:32:24.159Z,65
2016-10-30T10:33:23.561Z,70
2016-10-30T10:34:24.215Z,65
2016-10-30T10:35:23.590Z,70
2016-10-30T10:36:23.941Z,65
2016-10-30T10:37:24.620Z,70
2016-10-30T10:38:23.968Z,70
2016-10-30T10:39:23.988Z,70
2016-10-30T10:40:24.015Z,70
2016-10-30T10:41:24.028Z,65
2016-10-30T10:42:24.094Z,70
2016-10-30T10:43:24.398Z,75
2016-10-30T10:44:24.099Z,75
2016-10-30T10:45:24.124Z,50
2016-10-30T10:46:23.827Z,60
2016-10-30T10:47:24.475Z,60
2016-10-30T10:48:24.500Z,65
2016-10-30T10:49:24.245Z,75
2016-10-30T10:50:24.227Z,50
2016-10-30T10:51:24.876Z,50
2016-10-30T10:52:24.904Z,25
2016-10-30T10:53:24.299Z,30
2016-10-30T10:54:24.634Z,40
2016-10-30T10:55:24.685Z,60
2016-10-30T10:56:24.708Z,55
2016-10-30T10:57:25.037Z,55
2016-10-30T10:58:24.738Z,55
2016-10-30T10:59:24.110Z,55
2016-10-30T11:00:24.781Z,55
2016-10-30T11:01:24.795Z,55
2016-10-30T11:02:24.497Z,55
2016-10-30T11:03:24.885Z,55
2016-10-30T11:04:24.912Z,55
2016-10-30T11:05:24.564Z,55
2016-10-30T11:06:24.586Z,55
2016-10-30T11:07:24.609Z,55
2016-10-30T11:08:24.954Z,50
2016-10-30T11:09:24.331Z,50
2016-10-30T11:10:24.996Z,50
2016-10-30T11:11:25.340Z,50
2016-10-30T11:12:24.713Z,50
2016-10-30T11:13:25.057Z,50
2016-10-30T11:14:25.399Z,50
2016-10-30T11:15:25.417Z,50
2016-10-30T11:16:24.813Z,50
2016-10-30T11:17:25.147Z,50
2016-10-30T11:18:24.854Z,50
2016-10-30T11:19:25.233Z,50
2016-10-30T11:20:25.214Z,50
2016-10-30T11:21:24.930Z,50
2016-10-30T11:22:24.945Z,50
2016-10-30T11:23:24.659Z,50
2016-10-30T11:24:25.317Z,50
2016-10-30T11:25:25.642Z,50
2016-10-30T11:26:26.020Z,50
2016-10-30T11:27:24.741Z,50
2016-10-30T11:28:25.078Z,50
2016-10-30T11:29:25.736Z,50
2016-10-30T11:30:25.128Z,50
2016-10-30T11:31:25.782Z,45
2016-10-30T11:32:25.802Z,45
2016-10-30T11:33:25.822Z,45
2016-10-30T11:34:25.861Z,45
2016-10-30T11:35:25.300Z,45
2016-10-30T11:36:26.211Z,45
2016-10-30T11:37:25.292Z,45
2016-10-30T11:38:25.939Z,45
2016-10-30T11:39:25.334Z,45
2016-10-30T11:40:25.690Z,45
2016-10-30T11:41:25.875Z,45
2016-10-30T11:42:26.042Z,45
2016-10-30T11:43:25.429Z,45
2016-10-30T11:44:25.866Z,45
2016-10-30T11:45:26.131Z,45
2016-10-30T11:46:26.000Z,45
2016-10-30T11:47:25.543Z,45
2016-10-30T11:48:25.543Z,45
2016-10-30T11:49:25.279Z,45
2016-10-30T11:50:25.591Z,45
2016-10-30T11:51:26.251Z,45
2016-10-30T11:52:26.272Z,40
2016-10-30T11:53:26.313Z,40
2016-10-30T11:54:25.691Z,45
2016-10-30T11:55:26.346Z,40
2016-10-30T11:56:25.727Z,40
2016-10-30T11:57:25.754Z,40
2016-10-30T11:58:26.090Z,40
2016-10-30T11:59:26.745Z,40
2016-10-30T12:00:25.848Z,40
2016-10-30T12:01:25.879Z,40
2016-10-30T12:02:27.815Z,40
2016-10-30T12:03:26.233Z,40
2016-10-30T12:04:25.915Z,40
2016-10-30T12:05:26.609Z,40
2016-10-30T12:06:26.938Z,40
2016-10-30T12:07:26.632Z,40
2016-10-30T12:08:26.740Z,40
2016-10-30T12:09:26.035Z,40
2016-10-30T12:10:26.379Z,40
2016-10-30T12:11:26.400Z,40
2016-10-30T12:12:26.562Z,40
2016-10-30T12:13:26.769Z,40
2016-10-30T12:14:27.172Z,40
2016-10-30T12:15:26.838Z,40
2016-10-30T12:16:26.201Z,40
2016-10-30T12:17:26.541Z,40
2016-10-30T12:18:26.260Z,40
2016-10-30T12:19:26.604Z,40
2016-10-30T12:20:41.234Z,40
2016-10-30T12:21:27.274Z,40
2016-10-30T12:22:27.001Z,35
2016-10-30T12:23:26.374Z,35
2016-10-30T12:24:26.741Z,35
2016-10-30T12:25:27.056Z,35
2016-10-30T12:26:26.762Z,35
2016-10-30T12:27:26.492Z,35
2016-10-30T12:28:26.816Z,35
2016-10-30T12:29:26.828Z,35
2016-10-30T12:30:26.539Z,35
2016-10-30T12:31:26.603Z,35
2016-10-30T12:32:28.619Z,35
2016-10-30T12:33:27.243Z,35
2016-10-30T12:34:26.641Z,35
2016-10-30T12:35:27.297Z,35
2016-10-30T12:36:27.644Z,35
2016-10-30T12:37:27.057Z,35
2016-10-30T12:38:27.076Z,35
2016-10-30T12:39:26.894Z,35
2016-10-30T12:40:26.469Z,35
2016-10-30T12:41:27.139Z,35
2016-10-30T12:42:27.467Z,35
2016-10-30T12:43:26.859Z,35
2016-10-30T12:44:27.516Z,35
2016-10-30T12:45:27.230Z,35
2016-10-30T12:46:27.260Z,35
2016-10-30T12:47:27.605Z,35
2016-10-30T12:48:27.613Z,35
2016-10-30T12:49:27.034Z,35
2016-10-30T12:50:27.068Z,35
2016-10-30T12:51:27.376Z,35
2016-10-30T12:53:27.411Z,35
2016-10-30T12:54:27.132Z,35
2016-10-30T12:55:27.779Z,35
2016-10-30T12:56:27.808Z,35
2016-10-30T12:57:27.200Z,35
2016-10-30T12:58:27.366Z,35
2016-10-30T12:59:27.583Z,35
2016-10-30T13:00:27.315Z,35
2016-10-30T13:01:28.243Z,35
2016-10-30T13:02:27.321Z,35
2016-10-30T13:03:27.983Z,35
2016-10-30T13:04:27.680Z,35
2016-10-30T13:05:27.413Z,35
2016-10-30T13:06:28.065Z,35
2016-10-30T13:07:28.071Z,30
2016-10-30T13:08:27.465Z,30
2016-10-30T13:09:27.493Z,30
2016-10-30T13:10:27.825Z,30
2016-10-30T13:11:27.593Z,25
2016-10-30T13:12:27.242Z,25
2016-10-30T13:13:27.902Z,30
2016-10-30T13:14:28.247Z,20
2016-10-30T13:15:27.946Z,30
2016-10-30T13:16:27.976Z,30
2016-10-30T13:17:28.336Z,30
2016-10-30T13:18:28.031Z,30
2016-10-30T13:19:28.066Z,30
2016-10-30T13:20:28.072Z,30
2016-10-30T13:21:27.805Z,30
2016-10-30T13:22:28.441Z,30
2016-10-30T13:23:27.829Z,30
2016-10-30T13:24:27.877Z,30
2016-10-30T13:25:28.392Z,30
2016-10-30T13:26:28.850Z,25
2016-10-30T13:27:28.260Z,25
2016-10-30T13:28:27.972Z,25
2016-10-30T13:29:28.328Z,25
2016-10-30T13:30:28.319Z,25
2016-10-30T13:31:28.028Z,25
2016-10-30T13:32:28.373Z,25
2016-10-30T13:33:28.398Z,25
2016-10-30T13:34:27.821Z,25
2016-10-30T13:35:28.130Z,25
2016-10-30T13:36:28.202Z,25
2016-10-30T13:37:28.806Z,25
2016-10-30T13:38:28.207Z,25
2016-10-30T13:39:28.244Z,25
2016-10-30T13:40:28.569Z,25
2016-10-30T13:41:28.583Z,25
2016-10-30T13:42:28.622Z,25
2016-10-30T13:43:28.000Z,25
2016-10-30T13:44:28.978Z,25
2016-10-30T13:45:28.360Z,25
2016-10-30T13:46:28.731Z,20
2016-10-30T13:47:28.737Z,20
2016-10-30T13:48:28.441Z,20
2016-10-30T13:49:28.780Z,20
2016-10-30T13:50:28.813Z,20
2016-10-30T13:51:28.827Z,20
2016-10-30T13:52:28.850Z,20
2016-10-30T13:53:28.562Z,20
2016-10-30T13:54:28.907Z,20
2016-10-30T13:55:29.585Z,20
2016-10-30T13:56:28.719Z,20
2016-10-30T13:57:29.317Z,20
2016-10-30T13:58:29.020Z,20
2016-10-30T13:59:29.349Z,20
2016-10-30T14:00:29.082Z,20
2016-10-30T14:01:28.756Z,20
2016-10-30T14:02:29.861Z,20
2016-10-30T14:03:29.125Z,20
2016-10-30T14:04:29.165Z,20
2016-10-30T14:05:29.181Z,20
2016-10-30T14:06:29.506Z,20
2016-10-30T14:07:29.054Z,20
2016-10-30T14:08:29.922Z,20
2016-10-30T14:09:29.278Z,20
2016-10-30T14:10:29.242Z,15
2016-10-30T14:11:29.712Z,15
2016-10-30T14:12:28.745Z,15
2016-10-30T14:13:29.039Z,15
2016-10-30T14:14:29.066Z,15
2016-10-30T14:15:30.097Z,15
2016-10-30T14:16:29.758Z,15
2016-10-30T14:17:29.000Z,15
2016-10-30T14:18:29.793Z,15
2016-10-30T14:19:29.211Z,15
2016-10-30T14:20:29.285Z,15
2016-10-30T14:21:29.906Z,15
2016-10-30T14:22:29.411Z,15
2016-10-30T14:23:29.288Z,15
2016-10-30T14:24:29.638Z,15
2016-10-30T14:25:29.965Z,15
2016-10-30T14:26:30.345Z,15
2016-10-30T14:27:29.379Z,15
2016-10-30T14:28:29.738Z,15
2016-10-30T14:29:29.779Z,20
2016-10-30T14:30:29.866Z,30
2016-10-30T14:31:30.151Z,50
2016-10-30T14:32:30.299Z,75
2016-10-30T14:33:29.847Z,55
2016-10-30T14:34:29.274Z,20
2016-10-30T14:35:29.309Z,15